sensor_id;sensor_type;location;lat;lon;timestamp;pressure;altitude;pressure_sealevel;temperature;humidity
44751;BME280;30477;48.224;11.470;2022-07-23T00:00:27;96072.91;;;25.67;46.33
44751;BME280;30477;48.224;11.470;2022-07-23T00:02:52;96076.84;;;25.65;46.45
44751;BME280;30477;48.224;11.470;2022-07-23T00:05:17;96085.16;;;25.57;46.67
44751;BME280;30477;48.224;11.470;2022-07-23T00:07:43;96087.72;;;25.51;46.87
44751;BME280;30477;48.224;11.470;2022-07-23T00:10:08;96078.47;;;25.54;46.92
44751;BME280;30477;48.224;11.470;2022-07-23T00:12:35;96075.25;;;25.52;46.78
44751;BME280;30477;48.224;11.470;2022-07-23T00:15:00;96080.69;;;25.45;46.89
44751;BME280;30477;48.224;11.470;2022-07-23T00:17:27;96074.81;;;25.43;46.91
44751;BME280;30477;48.224;11.470;2022-07-23T00:19:52;96078.97;;;25.39;46.96
44751;BME280;30477;48.224;11.470;2022-07-23T00:22:18;96083.22;;;25.40;47.04
44751;BME280;30477;48.224;11.470;2022-07-23T00:24:44;96092.09;;;25.34;47.06
44751;BME280;30477;48.224;11.470;2022-07-23T00:27:09;96093.38;;;25.31;47.29
44751;BME280;30477;48.224;11.470;2022-07-23T00:29:34;96090.84;;;25.25;47.56
44751;BME280;30477;48.224;11.470;2022-07-23T00:32:00;96087.97;;;25.26;47.69
44751;BME280;30477;48.224;11.470;2022-07-23T00:34:25;96086.56;;;25.24;47.63
44751;BME280;30477;48.224;11.470;2022-07-23T00:36:50;96089.47;;;25.22;47.34
44751;BME280;30477;48.224;11.470;2022-07-23T00:39:18;96098.66;;;25.20;47.53
44751;BME280;30477;48.224;11.470;2022-07-23T00:41:44;96100.63;;;25.12;47.66
44751;BME280;30477;48.224;11.470;2022-07-23T00:46:52;96111.56;;;25.04;48.01
44751;BME280;30477;48.224;11.470;2022-07-23T00:49:28;96098.34;;;24.92;48.32
44751;BME280;30477;48.224;11.470;2022-07-23T00:51:55;96105.34;;;24.87;48.74
44751;BME280;30477;48.224;11.470;2022-07-23T00:54:23;96107.19;;;24.86;48.92
44751;BME280;30477;48.224;11.470;2022-07-23T00:56:50;96118.34;;;24.88;48.80
44751;BME280;30477;48.224;11.470;2022-07-23T00:59:15;96131.81;;;24.87;49.13
44751;BME280;30477;48.224;11.470;2022-07-23T01:01:41;96162.22;;;24.84;49.02
44751;BME280;30477;48.224;11.470;2022-07-23T01:04:06;96181.53;;;24.85;49.20
44751;BME280;30477;48.224;11.470;2022-07-23T01:06:37;96182.69;;;24.89;49.35
44751;BME280;30477;48.224;11.470;2022-07-23T01:09:04;96201.22;;;24.89;49.52
44751;BME280;30477;48.224;11.470;2022-07-23T01:11:32;96221.66;;;24.70;49.94
44751;BME280;30477;48.224;11.470;2022-07-23T01:13:58;96239.56;;;24.56;49.61
44751;BME280;30477;48.224;11.470;2022-07-23T01:16:23;96253.03;;;24.36;49.33
44751;BME280;30477;48.224;11.470;2022-07-23T01:18:49;96289.84;;;24.19;49.78
44751;BME280;30477;48.224;11.470;2022-07-23T01:21:17;96302.53;;;23.92;50.14
44751;BME280;30477;48.224;11.470;2022-07-23T01:23:43;96315.50;;;23.68;50.77
44751;BME280;30477;48.224;11.470;2022-07-23T01:26:09;96333.75;;;23.20;53.02
44751;BME280;30477;48.224;11.470;2022-07-23T01:28:34;96340.00;;;22.42;55.45
44751;BME280;30477;48.224;11.470;2022-07-23T01:31:00;96338.25;;;21.69;58.57
44751;BME280;30477;48.224;11.470;2022-07-23T01:33:25;96353.38;;;21.14;60.56
44751;BME280;30477;48.224;11.470;2022-07-23T01:35:51;96348.16;;;20.65;62.18
44751;BME280;30477;48.224;11.470;2022-07-23T01:38:16;96364.63;;;20.46;63.30
44751;BME280;30477;48.224;11.470;2022-07-23T01:40:41;96374.28;;;20.39;63.44
44751;BME280;30477;48.224;11.470;2022-07-23T01:43:06;96368.88;;;20.47;64.16
44751;BME280;30477;48.224;11.470;2022-07-23T01:45:32;96360.94;;;20.40;63.94
44751;BME280;30477;48.224;11.470;2022-07-23T01:47:57;96352.84;;;20.35;63.66
44751;BME280;30477;48.224;11.470;2022-07-23T01:50:22;96343.91;;;20.30;63.98
44751;BME280;30477;48.224;11.470;2022-07-23T01:52:48;96349.34;;;20.28;64.78
44751;BME280;30477;48.224;11.470;2022-07-23T01:55:13;96348.38;;;20.29;64.37
44751;BME280;30477;48.224;11.470;2022-07-23T01:57:38;96341.09;;;20.31;64.84
44751;BME280;30477;48.224;11.470;2022-07-23T02:00:04;96336.66;;;20.32;65.54
44751;BME280;30477;48.224;11.470;2022-07-23T02:02:30;96319.41;;;20.22;66.01
44751;BME280;30477;48.224;11.470;2022-07-23T02:04:55;96310.41;;;20.45;65.71
44751;BME280;30477;48.224;11.470;2022-07-23T02:07:21;96298.28;;;20.44;65.21
44751;BME280;30477;48.224;11.470;2022-07-23T02:09:46;96301.06;;;20.36;65.95
44751;BME280;30477;48.224;11.470;2022-07-23T02:12:11;96311.34;;;20.65;66.11
44751;BME280;30477;48.224;11.470;2022-07-23T02:14:37;96335.91;;;20.51;65.45
44751;BME280;30477;48.224;11.470;2022-07-23T02:17:02;96327.03;;;20.52;67.10
44751;BME280;30477;48.224;11.470;2022-07-23T02:19:28;96318.09;;;20.46;66.25
44751;BME280;30477;48.224;11.470;2022-07-23T02:21:53;96313.63;;;20.40;67.29
44751;BME280;30477;48.224;11.470;2022-07-23T02:24:19;96304.91;;;20.75;66.34
44751;BME280;30477;48.224;11.470;2022-07-23T02:26:45;96275.19;;;20.87;66.13
44751;BME280;30477;48.224;11.470;2022-07-23T02:29:10;96246.03;;;20.89;66.00
44751;BME280;30477;48.224;11.470;2022-07-23T02:31:36;96221.13;;;20.72;66.01
44751;BME280;30477;48.224;11.470;2022-07-23T02:34:01;96206.28;;;20.51;66.62
44751;BME280;30477;48.224;11.470;2022-07-23T02:36:28;96208.03;;;20.37;67.37
44751;BME280;30477;48.224;11.470;2022-07-23T02:38:53;96188.22;;;20.41;67.33
44751;BME280;30477;48.224;11.470;2022-07-23T02:41:19;96195.13;;;20.35;67.34
44751;BME280;30477;48.224;11.470;2022-07-23T02:43:44;96199.41;;;20.50;67.22
44751;BME280;30477;48.224;11.470;2022-07-23T02:46:10;96209.75;;;20.58;67.18
44751;BME280;30477;48.224;11.470;2022-07-23T02:48:35;96212.19;;;20.59;67.52
44751;BME280;30477;48.224;11.470;2022-07-23T02:51:01;96211.00;;;20.75;67.47
44751;BME280;30477;48.224;11.470;2022-07-23T02:53:26;96222.34;;;20.82;67.08
44751;BME280;30477;48.224;11.470;2022-07-23T02:55:51;96225.38;;;20.73;67.01
44751;BME280;30477;48.224;11.470;2022-07-23T02:58:17;96231.03;;;20.70;68.14
44751;BME280;30477;48.224;11.470;2022-07-23T03:00:43;96231.22;;;20.68;68.08
44751;BME280;30477;48.224;11.470;2022-07-23T03:03:08;96245.34;;;20.54;67.27
44751;BME280;30477;48.224;11.470;2022-07-23T03:05:34;96240.41;;;20.31;68.62
44751;BME280;30477;48.224;11.470;2022-07-23T03:07:59;96245.69;;;20.44;68.84
44751;BME280;30477;48.224;11.470;2022-07-23T03:10:25;96233.16;;;20.46;68.92
44751;BME280;30477;48.224;11.470;2022-07-23T03:12:50;96270.78;;;20.53;68.07
44751;BME280;30477;48.224;11.470;2022-07-23T03:15:16;96257.22;;;20.43;67.93
44751;BME280;30477;48.224;11.470;2022-07-23T03:17:41;96241.59;;;20.35;68.42
44751;BME280;30477;48.224;11.470;2022-07-23T03:20:07;96240.59;;;20.36;68.26
44751;BME280;30477;48.224;11.470;2022-07-23T03:22:33;96244.06;;;20.43;68.36
44751;BME280;30477;48.224;11.470;2022-07-23T03:24:58;96238.44;;;20.46;67.92
44751;BME280;30477;48.224;11.470;2022-07-23T03:27:26;96216.97;;;20.49;67.88
44751;BME280;30477;48.224;11.470;2022-07-23T03:29:53;96196.41;;;20.59;67.52
44751;BME280;30477;48.224;11.470;2022-07-23T03:32:20;96181.47;;;20.66;67.40
44751;BME280;30477;48.224;11.470;2022-07-23T03:34:45;96206.53;;;20.62;66.97
44751;BME280;30477;48.224;11.470;2022-07-23T03:37:11;96201.03;;;20.57;66.75
44751;BME280;30477;48.224;11.470;2022-07-23T03:39:36;96187.91;;;20.64;66.96
44751;BME280;30477;48.224;11.470;2022-07-23T03:42:02;96187.88;;;20.57;67.64
44751;BME280;30477;48.224;11.470;2022-07-23T03:44:28;96179.81;;;20.65;67.05
44751;BME280;30477;48.224;11.470;2022-07-23T03:46:53;96172.97;;;20.78;67.13
44751;BME280;30477;48.224;11.470;2022-07-23T03:49:18;96166.28;;;20.82;66.98
44751;BME280;30477;48.224;11.470;2022-07-23T03:51:44;96173.16;;;20.83;66.47
44751;BME280;30477;48.224;11.470;2022-07-23T03:54:09;96167.28;;;20.81;66.57
44751;BME280;30477;48.224;11.470;2022-07-23T03:56:35;96178.63;;;20.81;67.11
44751;BME280;30477;48.224;11.470;2022-07-23T03:59:00;96184.28;;;20.72;66.85
44751;BME280;30477;48.224;11.470;2022-07-23T04:01:25;96192.31;;;20.50;67.74
44751;BME280;30477;48.224;11.470;2022-07-23T04:03:51;96181.56;;;20.32;68.30
44751;BME280;30477;48.224;11.470;2022-07-23T04:06:16;96191.66;;;20.35;69.33
44751;BME280;30477;48.224;11.470;2022-07-23T04:08:41;96184.63;;;20.48;68.94
44751;BME280;30477;48.224;11.470;2022-07-23T04:11:07;96181.00;;;20.56;68.50
44751;BME280;30477;48.224;11.470;2022-07-23T04:13:32;96179.63;;;20.60;68.15
44751;BME280;30477;48.224;11.470;2022-07-23T04:15:58;96171.75;;;20.60;68.04
44751;BME280;30477;48.224;11.470;2022-07-23T04:18:23;96164.84;;;20.59;67.69
44751;BME280;30477;48.224;11.470;2022-07-23T04:20:50;96161.56;;;20.57;67.64
44751;BME280;30477;48.224;11.470;2022-07-23T04:23:16;96153.53;;;20.65;67.41
44751;BME280;30477;48.224;11.470;2022-07-23T04:25:42;96147.88;;;20.68;67.39
44751;BME280;30477;48.224;11.470;2022-07-23T04:28:08;96140.78;;;20.69;67.88
44751;BME280;30477;48.224;11.470;2022-07-23T04:30:33;96129.06;;;20.72;67.48
44751;BME280;30477;48.224;11.470;2022-07-23T04:32:58;96136.56;;;20.75;67.20
44751;BME280;30477;48.224;11.470;2022-07-23T04:35:24;96134.91;;;20.80;66.81
44751;BME280;30477;48.224;11.470;2022-07-23T04:37:49;96127.63;;;20.76;66.37
44751;BME280;30477;48.224;11.470;2022-07-23T04:40:14;96137.34;;;20.75;66.46
44751;BME280;30477;48.224;11.470;2022-07-23T04:42:40;96140.59;;;20.71;66.72
44751;BME280;30477;48.224;11.470;2022-07-23T04:45:06;96143.16;;;20.57;67.05
44751;BME280;30477;48.224;11.470;2022-07-23T04:47:31;96150.44;;;20.42;68.12
44751;BME280;30477;48.224;11.470;2022-07-23T04:49:57;96135.28;;;20.57;68.02
44751;BME280;30477;48.224;11.470;2022-07-23T04:52:23;96131.06;;;20.70;67.57
44751;BME280;30477;48.224;11.470;2022-07-23T04:54:48;96130.28;;;20.69;67.37
44751;BME280;30477;48.224;11.470;2022-07-23T04:57:14;96122.75;;;20.66;66.86
44751;BME280;30477;48.224;11.470;2022-07-23T04:59:39;96117.31;;;20.67;67.19
44751;BME280;30477;48.224;11.470;2022-07-23T05:02:04;96127.44;;;20.77;67.09
44751;BME280;30477;48.224;11.470;2022-07-23T05:04:30;96134.13;;;20.80;67.93
44751;BME280;30477;48.224;11.470;2022-07-23T05:06:56;96125.19;;;20.81;68.00
44751;BME280;30477;48.224;11.470;2022-07-23T05:09:22;96131.28;;;20.88;68.61
44751;BME280;30477;48.224;11.470;2022-07-23T05:11:47;96132.88;;;20.89;67.94
44751;BME280;30477;48.224;11.470;2022-07-23T05:14:13;96127.63;;;20.82;67.93
44751;BME280;30477;48.224;11.470;2022-07-23T05:16:38;96139.38;;;20.86;68.03
44751;BME280;30477;48.224;11.470;2022-07-23T05:19:03;96126.00;;;21.01;67.97
44751;BME280;30477;48.224;11.470;2022-07-23T05:21:29;96132.28;;;21.07;67.51
44751;BME280;30477;48.224;11.470;2022-07-23T05:23:54;96135.53;;;21.09;67.28
44751;BME280;30477;48.224;11.470;2022-07-23T05:26:20;96135.53;;;21.02;67.43
44751;BME280;30477;48.224;11.470;2022-07-23T05:28:45;96133.28;;;20.99;67.85
44751;BME280;30477;48.224;11.470;2022-07-23T05:31:10;96143.44;;;21.02;67.47
44751;BME280;30477;48.224;11.470;2022-07-23T05:33:36;96149.50;;;20.96;67.91
44751;BME280;30477;48.224;11.470;2022-07-23T05:36:02;96153.13;;;21.02;67.90
44751;BME280;30477;48.224;11.470;2022-07-23T05:38:28;96154.56;;;20.98;68.11
44751;BME280;30477;48.224;11.470;2022-07-23T05:40:54;96151.72;;;20.99;68.11
44751;BME280;30477;48.224;11.470;2022-07-23T05:43:19;96157.19;;;20.98;68.24
44751;BME280;30477;48.224;11.470;2022-07-23T05:45:45;96166.06;;;21.03;68.40
44751;BME280;30477;48.224;11.470;2022-07-23T05:48:10;96179.84;;;21.12;68.10
44751;BME280;30477;48.224;11.470;2022-07-23T05:50:36;96197.28;;;21.06;67.63
44751;BME280;30477;48.224;11.470;2022-07-23T05:53:01;96184.72;;;21.08;68.26
44751;BME280;30477;48.224;11.470;2022-07-23T05:55:27;96193.22;;;21.11;67.71
44751;BME280;30477;48.224;11.470;2022-07-23T05:57:55;96182.91;;;21.02;67.96
44751;BME280;30477;48.224;11.470;2022-07-23T06:00:21;96172.75;;;20.99;68.52
44751;BME280;30477;48.224;11.470;2022-07-23T06:02:46;96161.63;;;20.97;68.41
44751;BME280;30477;48.224;11.470;2022-07-23T06:05:11;96158.38;;;20.95;68.72
44751;BME280;30477;48.224;11.470;2022-07-23T06:07:37;96174.16;;;21.02;68.75
44751;BME280;30477;48.224;11.470;2022-07-23T06:10:03;96170.94;;;21.06;68.58
44751;BME280;30477;48.224;11.470;2022-07-23T06:12:29;96172.56;;;20.87;68.43
44751;BME280;30477;48.224;11.470;2022-07-23T06:14:54;96164.88;;;20.99;69.75
44751;BME280;30477;48.224;11.470;2022-07-23T06:17:20;96157.59;;;21.15;69.53
44751;BME280;30477;48.224;11.470;2022-07-23T06:19:45;96158.56;;;21.20;68.90
44751;BME280;30477;48.224;11.470;2022-07-23T06:22:10;96142.59;;;21.22;68.64
44751;BME280;30477;48.224;11.470;2022-07-23T06:24:36;96119.53;;;21.11;67.91
44751;BME280;30477;48.224;11.470;2022-07-23T06:27:01;96113.88;;;20.94;67.65
44751;BME280;30477;48.224;11.470;2022-07-23T06:29:27;96118.94;;;20.88;67.51
44751;BME280;30477;48.224;11.470;2022-07-23T06:31:52;96120.75;;;20.88;67.79
44751;BME280;30477;48.224;11.470;2022-07-23T06:34:17;96122.78;;;20.93;67.11
44751;BME280;30477;48.224;11.470;2022-07-23T06:36:43;96130.06;;;20.84;67.06
44751;BME280;30477;48.224;11.470;2022-07-23T06:39:08;96148.66;;;20.89;67.39
44751;BME280;30477;48.224;11.470;2022-07-23T06:41:33;96176.59;;;21.03;67.55
44751;BME280;30477;48.224;11.470;2022-07-23T06:43:59;96222.75;;;21.39;66.62
44751;BME280;30477;48.224;11.470;2022-07-23T06:46:24;96247.50;;;21.52;66.63
44751;BME280;30477;48.224;11.470;2022-07-23T06:48:50;96242.00;;;21.66;65.79
44751;BME280;30477;48.224;11.470;2022-07-23T06:51:15;96238.53;;;21.86;65.35
44751;BME280;30477;48.224;11.470;2022-07-23T06:53:41;96219.31;;;21.65;65.81
44751;BME280;30477;48.224;11.470;2022-07-23T06:56:06;96226.81;;;21.62;65.37
44751;BME280;30477;48.224;11.470;2022-07-23T06:58:32;96245.44;;;21.80;65.64
44751;BME280;30477;48.224;11.470;2022-07-23T07:00:57;96252.28;;;21.95;64.82
44751;BME280;30477;48.224;11.470;2022-07-23T07:03:22;96248.59;;;22.02;64.57
44751;BME280;30477;48.224;11.470;2022-07-23T07:05:48;96243.34;;;21.96;64.40
44751;BME280;30477;48.224;11.470;2022-07-23T07:08:15;96241.31;;;21.98;64.18
44751;BME280;30477;48.224;11.470;2022-07-23T07:10:40;96243.56;;;22.01;63.68
44751;BME280;30477;48.224;11.470;2022-07-23T07:13:06;96234.06;;;21.86;63.68
44751;BME280;30477;48.224;11.470;2022-07-23T07:15:31;96214.22;;;21.77;63.81
44751;BME280;30477;48.224;11.470;2022-07-23T07:17:56;96211.16;;;21.80;64.29
44751;BME280;30477;48.224;11.470;2022-07-23T07:20:22;96213.59;;;21.75;64.41
44751;BME280;30477;48.224;11.470;2022-07-23T07:22:49;96217.03;;;21.82;63.96
44751;BME280;30477;48.224;11.470;2022-07-23T07:25:14;96217.81;;;21.89;64.19
44751;BME280;30477;48.224;11.470;2022-07-23T07:27:40;96207.09;;;21.84;64.56
44751;BME280;30477;48.224;11.470;2022-07-23T07:30:06;96215.00;;;21.91;64.69
44751;BME280;30477;48.224;11.470;2022-07-23T07:32:32;96221.50;;;21.88;65.24
44751;BME280;30477;48.224;11.470;2022-07-23T07:34:58;96223.53;;;21.86;65.00
44751;BME280;30477;48.224;11.470;2022-07-23T07:37:23;96217.22;;;21.87;65.68
44751;BME280;30477;48.224;11.470;2022-07-23T07:39:49;96225.09;;;21.94;65.76
44751;BME280;30477;48.224;11.470;2022-07-23T07:42:14;96227.50;;;22.02;65.14
44751;BME280;30477;48.224;11.470;2022-07-23T07:44:39;96238.91;;;21.89;65.11
44751;BME280;30477;48.224;11.470;2022-07-23T07:47:05;96240.16;;;21.80;65.29
44751;BME280;30477;48.224;11.470;2022-07-23T07:49:30;96244.59;;;21.86;65.67
44751;BME280;30477;48.224;11.470;2022-07-23T07:51:55;96248.25;;;21.85;64.88
44751;BME280;30477;48.224;11.470;2022-07-23T07:54:21;96264.09;;;21.72;65.30
44751;BME280;30477;48.224;11.470;2022-07-23T07:56:46;96254.75;;;21.76;65.32
44751;BME280;30477;48.224;11.470;2022-07-23T07:59:12;96252.31;;;21.81;65.41
44751;BME280;30477;48.224;11.470;2022-07-23T08:01:40;96249.88;;;21.86;65.23
44751;BME280;30477;48.224;11.470;2022-07-23T08:04:05;96250.69;;;21.87;65.37
44751;BME280;30477;48.224;11.470;2022-07-23T08:06:30;96235.28;;;21.91;65.26
44751;BME280;30477;48.224;11.470;2022-07-23T08:08:56;96240.56;;;21.77;65.04
44751;BME280;30477;48.224;11.470;2022-07-23T08:11:21;96240.16;;;21.80;65.13
44751;BME280;30477;48.224;11.470;2022-07-23T08:13:46;96240.13;;;21.87;65.33
44751;BME280;30477;48.224;11.470;2022-07-23T08:16:11;96246.22;;;21.81;65.09
44751;BME280;30477;48.224;11.470;2022-07-23T08:18:37;96243.63;;;21.67;65.59
44751;BME280;30477;48.224;11.470;2022-07-23T08:21:02;96243.63;;;21.74;65.98
44751;BME280;30477;48.224;11.470;2022-07-23T08:23:30;96233.25;;;21.79;65.76
44751;BME280;30477;48.224;11.470;2022-07-23T08:25:56;96242.56;;;21.88;66.08
44751;BME280;30477;48.224;11.470;2022-07-23T08:28:22;96230.97;;;21.96;65.96
44751;BME280;30477;48.224;11.470;2022-07-23T08:30:47;96225.50;;;21.98;65.90
44751;BME280;30477;48.224;11.470;2022-07-23T08:33:15;96215.78;;;22.05;65.99
44751;BME280;30477;48.224;11.470;2022-07-23T08:35:48;96224.00;;;22.28;65.60
44751;BME280;30477;48.224;11.470;2022-07-23T08:38:16;96228.63;;;22.40;65.03
44751;BME280;30477;48.224;11.470;2022-07-23T08:40:45;96232.50;;;22.37;64.96
44751;BME280;30477;48.224;11.470;2022-07-23T08:43:12;96260.19;;;22.53;64.99
44751;BME280;30477;48.224;11.470;2022-07-23T08:45:40;96273.69;;;22.77;63.82
44751;BME280;30477;48.224;11.470;2022-07-23T08:48:18;96279.06;;;23.02;64.34
44751;BME280;30477;48.224;11.470;2022-07-23T08:50:46;96302.53;;;23.67;63.29
44751;BME280;30477;48.224;11.470;2022-07-23T08:53:14;96309.19;;;24.38;61.77
44751;BME280;30477;48.224;11.470;2022-07-23T08:55:39;96324.81;;;24.40;60.30
44751;BME280;30477;48.224;11.470;2022-07-23T08:58:05;96313.34;;;24.09;60.93
44751;BME280;30477;48.224;11.470;2022-07-23T09:00:31;96302.47;;;23.99;61.13
44751;BME280;30477;48.224;11.470;2022-07-23T09:02:57;96308.63;;;23.93;61.27
44751;BME280;30477;48.224;11.470;2022-07-23T09:05:22;96306.56;;;23.95;60.72
44751;BME280;30477;48.224;11.470;2022-07-23T09:10:55;96305.72;;;23.76;61.20
44751;BME280;30477;48.224;11.470;2022-07-23T09:15:54;96290.94;;;23.93;60.93
44751;BME280;30477;48.224;11.470;2022-07-23T09:18:35;96286.47;;;24.12;60.47
44751;BME280;30477;48.224;11.470;2022-07-23T09:23:51;96289.69;;;24.33;59.81
44751;BME280;30477;48.224;11.470;2022-07-23T09:36:41;96306.44;;;25.78;56.61
44751;BME280;30477;48.224;11.470;2022-07-23T09:39:07;96306.91;;;25.75;55.16
44751;BME280;30477;48.224;11.470;2022-07-23T09:41:38;96296.84;;;25.41;55.19
44751;BME280;30477;48.224;11.470;2022-07-23T09:44:19;96308.94;;;25.37;55.60
44751;BME280;30477;48.224;11.470;2022-07-23T09:46:46;96309.03;;;25.42;55.73
44751;BME280;30477;48.224;11.470;2022-07-23T09:49:20;96310.53;;;25.38;55.95
44751;BME280;30477;48.224;11.470;2022-07-23T09:51:51;96293.38;;;25.52;55.83
44751;BME280;30477;48.224;11.470;2022-07-23T09:54:33;96296.16;;;25.58;56.59
44751;BME280;30477;48.224;11.470;2022-07-23T09:57:19;96291.34;;;25.66;56.00
44751;BME280;30477;48.224;11.470;2022-07-23T09:59:46;96291.56;;;25.88;56.15
44751;BME280;30477;48.224;11.470;2022-07-23T10:02:13;96285.66;;;26.22;55.54
44751;BME280;30477;48.224;11.470;2022-07-23T10:04:40;96277.22;;;26.37;54.58
44751;BME280;30477;48.224;11.470;2022-07-23T10:07:07;96279.81;;;26.60;53.50
44751;BME280;30477;48.224;11.470;2022-07-23T10:09:40;96278.13;;;26.83;51.58
44751;BME280;30477;48.224;11.470;2022-07-23T10:12:15;96277.69;;;26.74;50.14
44751;BME280;30477;48.224;11.470;2022-07-23T10:14:45;96275.06;;;26.62;50.50
44751;BME280;30477;48.224;11.470;2022-07-23T10:17:11;96270.31;;;26.36;50.78
44751;BME280;30477;48.224;11.470;2022-07-23T10:19:37;96279.66;;;26.26;51.35
44751;BME280;30477;48.224;11.470;2022-07-23T10:22:06;96278.28;;;26.12;51.06
44751;BME280;30477;48.224;11.470;2022-07-23T10:24:45;96265.75;;;25.96;50.68
44751;BME280;30477;48.224;11.470;2022-07-23T10:27:38;96262.19;;;25.90;50.55
44751;BME280;30477;48.224;11.470;2022-07-23T10:30:38;96256.75;;;25.97;49.96
44751;BME280;30477;48.224;11.470;2022-07-23T10:38:30;96257.44;;;26.04;49.32
44751;BME280;30477;48.224;11.470;2022-07-23T10:41:03;96249.72;;;26.02;48.62
44751;BME280;30477;48.224;11.470;2022-07-23T10:43:30;96247.78;;;25.98;48.46
44751;BME280;30477;48.224;11.470;2022-07-23T10:45:57;96251.34;;;25.91;48.56
44751;BME280;30477;48.224;11.470;2022-07-23T10:48:41;96241.31;;;25.94;48.33
44751;BME280;30477;48.224;11.470;2022-07-23T10:51:10;96238.66;;;25.94;47.64
44751;BME280;30477;48.224;11.470;2022-07-23T10:59:21;96239.13;;;26.02;46.97
44751;BME280;30477;48.224;11.470;2022-07-23T11:01:46;96240.22;;;26.18;46.96
44751;BME280;30477;48.224;11.470;2022-07-23T11:04:11;96236.25;;;26.32;46.73
44751;BME280;30477;48.224;11.470;2022-07-23T11:15:02;96226.06;;;26.41;46.64
44751;BME280;30477;48.224;11.470;2022-07-23T11:17:29;96221.28;;;26.55;46.49
44751;BME280;30477;48.224;11.470;2022-07-23T11:22:36;96224.31;;;26.59;45.05
44751;BME280;30477;48.224;11.470;2022-07-23T11:25:02;96225.81;;;26.55;45.23
44751;BME280;30477;48.224;11.470;2022-07-23T11:27:41;96225.47;;;26.51;45.34
44751;BME280;30477;48.224;11.470;2022-07-23T11:30:08;96218.44;;;26.45;45.26
44751;BME280;30477;48.224;11.470;2022-07-23T11:32:36;96235.81;;;26.24;45.70
44751;BME280;30477;48.224;11.470;2022-07-23T11:35:22;96232.31;;;25.95;46.09
44751;BME280;30477;48.224;11.470;2022-07-23T11:37:48;96234.63;;;25.79;46.46
44751;BME280;30477;48.224;11.470;2022-07-23T11:40:16;96230.59;;;25.65;46.70
44751;BME280;30477;48.224;11.470;2022-07-23T11:42:59;96231.59;;;25.64;46.94
44751;BME280;30477;48.224;11.470;2022-07-23T11:45:30;96227.00;;;25.59;47.35
44751;BME280;30477;48.224;11.470;2022-07-23T11:47:56;96230.69;;;25.46;47.45
44751;BME280;30477;48.224;11.470;2022-07-23T11:50:23;96229.31;;;25.44;48.10
44751;BME280;30477;48.224;11.470;2022-07-23T11:52:49;96226.09;;;25.54;48.42
44751;BME280;30477;48.224;11.470;2022-07-23T11:55:14;96232.88;;;25.61;48.63
44751;BME280;30477;48.224;11.470;2022-07-23T11:57:42;96243.38;;;25.68;48.53
44751;BME280;30477;48.224;11.470;2022-07-23T12:02:35;96239.69;;;25.45;47.68
44751;BME280;30477;48.224;11.470;2022-07-23T12:05:00;96233.75;;;25.20;47.49
44751;BME280;30477;48.224;11.470;2022-07-23T12:07:27;96224.81;;;25.21;47.85
44751;BME280;30477;48.224;11.470;2022-07-23T12:09:53;96221.25;;;25.27;48.05
44751;BME280;30477;48.224;11.470;2022-07-23T12:12:20;96224.56;;;25.34;48.07
44751;BME280;30477;48.224;11.470;2022-07-23T12:14:57;96224.59;;;25.22;47.74
44751;BME280;30477;48.224;11.470;2022-07-23T12:17:34;96214.31;;;25.26;48.07
44751;BME280;30477;48.224;11.470;2022-07-23T12:20:01;96226.53;;;25.27;48.17
44751;BME280;30477;48.224;11.470;2022-07-23T12:22:47;96222.75;;;25.35;47.70
44751;BME280;30477;48.224;11.470;2022-07-23T12:25:15;96233.56;;;25.21;48.01
44751;BME280;30477;48.224;11.470;2022-07-23T12:27:41;96229.25;;;25.08;48.81
44751;BME280;30477;48.224;11.470;2022-07-23T12:30:26;96224.41;;;25.05;49.02
44751;BME280;30477;48.224;11.470;2022-07-23T12:32:55;96223.16;;;25.20;49.01
44751;BME280;30477;48.224;11.470;2022-07-23T12:35:22;96226.91;;;25.30;49.35
44751;BME280;30477;48.224;11.470;2022-07-23T12:37:50;96221.81;;;25.41;48.91
44751;BME280;30477;48.224;11.470;2022-07-23T12:40:34;96218.50;;;25.45;49.18
44751;BME280;30477;48.224;11.470;2022-07-23T12:43:07;96217.56;;;25.51;48.88
44751;BME280;30477;48.224;11.470;2022-07-23T12:45:48;96220.22;;;25.51;48.36
44751;BME280;30477;48.224;11.470;2022-07-23T12:48:26;96219.88;;;25.48;48.15
44751;BME280;30477;48.224;11.470;2022-07-23T12:51:03;96221.59;;;25.30;48.33
44751;BME280;30477;48.224;11.470;2022-07-23T12:53:38;96217.78;;;25.38;48.60
44751;BME280;30477;48.224;11.470;2022-07-23T12:56:27;96218.84;;;25.37;48.23
44751;BME280;30477;48.224;11.470;2022-07-23T12:59:04;96223.31;;;25.25;48.72
44751;BME280;30477;48.224;11.470;2022-07-23T13:01:36;96224.81;;;25.33;48.43
44751;BME280;30477;48.224;11.470;2022-07-23T13:04:17;96222.75;;;25.35;48.49
44751;BME280;30477;48.224;11.470;2022-07-23T13:06:44;96229.31;;;25.32;48.75
44751;BME280;30477;48.224;11.470;2022-07-23T13:09:16;96224.59;;;25.22;48.69
44751;BME280;30477;48.224;11.470;2022-07-23T13:11:43;96226.72;;;25.14;49.16
44751;BME280;30477;48.224;11.470;2022-07-23T13:14:10;96224.19;;;25.19;49.72
44751;BME280;30477;48.224;11.470;2022-07-23T13:16:36;96226.44;;;25.34;49.54
44751;BME280;30477;48.224;11.470;2022-07-23T13:19:02;96225.16;;;25.36;49.23
44751;BME280;30477;48.224;11.470;2022-07-23T13:21:28;96234.34;;;25.22;49.80
44751;BME280;30477;48.224;11.470;2022-07-23T13:23:54;96225.00;;;25.19;49.81
44751;BME280;30477;48.224;11.470;2022-07-23T13:26:20;96225.38;;;25.23;50.18
44751;BME280;30477;48.224;11.470;2022-07-23T13:28:45;96230.69;;;25.23;50.01
44751;BME280;30477;48.224;11.470;2022-07-23T13:31:11;96233.16;;;25.18;50.15
44751;BME280;30477;48.224;11.470;2022-07-23T13:33:36;96221.25;;;25.27;50.29
44751;BME280;30477;48.224;11.470;2022-07-23T13:36:02;96225.06;;;25.31;50.35